createdAt,value
2022-10-06T05:06:13.089Z,89.03
2022-10-06T05:09:16.695Z,88.95
2022-10-06T05:11:54.621Z,88.89
2022-10-06T05:17:49.578Z,88.58
2022-10-06T05:25:23.380Z,88.21
2022-10-06T05:28:29.435Z,87.91
2022-10-06T05:35:32.585Z,87.60
2022-10-06T05:37:59.615Z,87.25
2022-10-06T05:40:43.022Z,87.07
2022-10-06T05:43:12.552Z,86.88
2022-10-06T05:49:33.354Z,86.34
2022-10-06T05:52:08.284Z,85.53
2022-10-06T05:54:57.920Z,85.46
2022-10-06T05:57:54.684Z,84.99
2022-10-06T06:00:22.514Z,84.49
2022-10-06T06:02:58.563Z,83.93
2022-10-06T06:05:36.643Z,83.28
2022-10-06T06:11:37.733Z,81.88
2022-10-06T06:14:50.943Z,81.03
2022-10-06T06:18:19.560Z,80.85
2022-10-06T06:21:00.112Z,80.50
2022-10-06T06:23:46.317Z,79.89
2022-10-06T06:26:47.912Z,79.57
2022-10-06T06:29:17.718Z,79.00
2022-10-06T06:31:48.085Z,78.75
2022-10-06T06:34:43.743Z,78.65
2022-10-06T06:38:00.100Z,78.85
2022-10-06T06:40:58.551Z,78.53
2022-10-06T06:44:44.261Z,78.01
2022-10-06T06:47:47.551Z,77.90
2022-10-06T06:50:32.808Z,77.29
2022-10-06T06:53:01.959Z,77.05
2022-10-06T07:00:36.395Z,77.50
2022-10-06T07:03:56.018Z,77.61
2022-10-06T07:11:16.066Z,77.05
2022-10-06T07:22:36.718Z,75.71
2022-10-06T07:35:08.178Z,71.54
2022-10-06T07:38:28.729Z,72.25
2022-10-06T07:41:58.896Z,71.92
2022-10-06T07:44:32.409Z,71.04
2022-10-06T07:47:02.192Z,70.42
2022-10-06T07:49:51.641Z,70.68
2022-10-06T07:52:18.999Z,70.24
2022-10-06T07:55:05.898Z,69.23
2022-10-06T07:58:23.806Z,68.98
2022-10-06T08:01:21.587Z,68.62
2022-10-06T08:04:18.006Z,68.14
2022-10-06T08:18:02.089Z,67.04
2022-10-06T08:30:29.538Z,65.00
2022-10-06T08:50:57.650Z,60.87
2022-10-06T08:51:55.670Z,63.52
2022-10-06T08:53:58.434Z,60.90
2022-10-06T08:56:51.454Z,61.22
2022-10-06T09:00:06.653Z,59.99
2022-10-06T09:04:24.755Z,59.22
2022-10-06T09:07:29.933Z,58.06
2022-10-06T09:10:54.633Z,57.96
2022-10-06T09:13:40.745Z,57.88
2022-10-06T09:17:34.882Z,57.57
2022-10-06T09:24:46.945Z,55.40
2022-10-06T09:27:33.311Z,55.18
2022-10-06T09:30:05.697Z,55.14
2022-10-06T09:33:06.289Z,55.35
2022-10-06T09:36:18.743Z,53.92
2022-10-06T09:50:26.993Z,51.73
2022-10-06T10:06:33.866Z,51.78
2022-10-06T10:19:06.131Z,50.51
2022-10-06T10:22:44.073Z,49.60
2022-10-06T10:25:34.508Z,49.79
2022-10-06T10:35:08.851Z,48.94
2022-10-06T10:37:27.050Z,49.26
2022-10-06T10:49:36.980Z,49.53
2022-10-06T10:57:01.018Z,48.67
2022-10-06T11:01:24.851Z,48.73
2022-10-06T11:05:17.331Z,49.41
2022-10-06T11:11:02.675Z,48.87
2022-10-06T11:14:15.024Z,48.31
2022-10-06T11:17:48.853Z,49.10
2022-10-06T11:27:43.576Z,49.36
2022-10-06T11:31:16.556Z,48.74
2022-10-06T11:33:17.125Z,46.02
2022-10-06T11:35:55.352Z,45.92
2022-10-06T11:48:19.193Z,45.70
2022-10-06T11:51:24.619Z,45.03
2022-10-06T11:54:39.622Z,45.13
2022-10-06T12:02:28.889Z,45.53
2022-10-06T12:12:45.897Z,45.24
2022-10-06T12:13:51.318Z,44.79
2022-10-06T12:20:40.757Z,45.35
2022-10-06T12:23:35.822Z,44.62
2022-10-06T12:30:50.178Z,43.99
2022-10-06T12:33:42.617Z,43.76
2022-10-06T12:36:21.290Z,43.73
2022-10-06T12:39:05.756Z,43.79
2022-10-06T12:42:23.347Z,43.79
2022-10-06T12:44:51.189Z,42.85
2022-10-06T12:51:42.070Z,42.78
2022-10-06T12:54:35.072Z,42.95
2022-10-06T12:57:18.097Z,42.08
2022-10-06T12:59:59.133Z,41.28
2022-10-06T13:02:34.487Z,40.80
2022-10-06T13:05:10.895Z,40.76
2022-10-06T13:08:42.461Z,40.00
2022-10-06T13:11:15.019Z,40.18
2022-10-06T13:15:18.822Z,39.78
2022-10-06T13:18:13.966Z,40.38
2022-10-06T13:20:57.060Z,39.85
2022-10-06T17:52:41.626Z,60.22
2022-10-06T17:52:43.103Z,60.16
2022-10-06T20:16:14.438Z,73.34
2022-10-06T20:18:48.614Z,74.34
2022-10-06T20:22:39.021Z,74.45
2022-10-06T20:26:20.396Z,74.90
2022-10-06T20:32:25.283Z,76.41
2022-10-06T20:33:13.760Z,75.10
2022-10-06T20:35:46.661Z,77.02
2022-10-06T20:43:00.242Z,78.02
2022-10-06T20:45:26.979Z,78.39
2022-10-06T20:47:54.162Z,78.50
2022-10-06T20:48:50.020Z,77.59
2022-10-06T20:50:23.383Z,78.86
2022-10-06T20:53:07.126Z,79.02
2022-10-06T20:56:13.413Z,79.43
2022-10-06T20:58:54.551Z,79.99
2022-10-06T21:05:23.467Z,80.18
2022-10-06T21:07:50.408Z,80.07
2022-10-06T21:10:22.479Z,80.05
2022-10-06T21:12:51.377Z,80.14
2022-10-06T21:16:14.664Z,80.20
2022-10-06T21:19:11.702Z,80.23
2022-10-06T21:21:51.482Z,80.28
2022-10-06T21:24:40.065Z,80.34
2022-10-06T21:27:10.941Z,80.33
2022-10-06T21:29:42.118Z,80.49
2022-10-06T21:36:43.447Z,80.76
2022-10-06T21:39:13.912Z,80.80
2022-10-06T21:41:46.606Z,81.00
2022-10-06T21:44:16.385Z,81.38
2022-10-06T21:47:49.847Z,81.48
2022-10-06T21:51:03.221Z,81.88
2022-10-06T21:58:28.474Z,83.04
2022-10-06T22:05:30.339Z,83.96
2022-10-06T22:12:32.310Z,83.99
2022-10-06T22:15:51.135Z,83.68
2022-10-06T23:02:23.630Z,85.43
